sensor_id;sensor_type;location;lat;lon;timestamp;P1;durP1;ratioP1;P2;durP2;ratioP2
2175;SDS011;1094;49.902;10.876;2023-06-22T00:00:27;32.30;;;29.27;;
2175;SDS011;1094;49.902;10.876;2023-06-22T00:02:53;33.90;;;31.00;;
2175;SDS011;1094;49.902;10.876;2023-06-22T00:05:19;33.03;;;30.03;;
2175;SDS011;1094;49.902;10.876;2023-06-22T00:07:45;31.07;;;28.27;;
2175;SDS011;1094;49.902;10.876;2023-06-22T00:10:11;33.93;;;30.83;;
2175;SDS011;1094;49.902;10.876;2023-06-22T00:12:37;33.73;;;30.63;;
2175;SDS011;1094;49.902;10.876;2023-06-22T00:15:03;31.80;;;28.50;;
2175;SDS011;1094;49.902;10.876;2023-06-22T00:17:29;32.03;;;29.27;;
2175;SDS011;1094;49.902;10.876;2023-06-22T00:19:55;31.70;;;28.60;;
2175;SDS011;1094;49.902;10.876;2023-06-22T00:22:23;33.60;;;30.43;;
2175;SDS011;1094;49.902;10.876;2023-06-22T00:24:56;28.57;;;26.00;;
2175;SDS011;1094;49.902;10.876;2023-06-22T00:27:22;31.73;;;28.73;;
2175;SDS011;1094;49.902;10.876;2023-06-22T00:29:48;33.23;;;30.13;;
2175;SDS011;1094;49.902;10.876;2023-06-22T00:32:14;30.57;;;27.83;;
2175;SDS011;1094;49.902;10.876;2023-06-22T00:34:42;34.63;;;29.50;;
2175;SDS011;1094;49.902;10.876;2023-06-22T00:37:08;32.47;;;29.47;;
2175;SDS011;1094;49.902;10.876;2023-06-22T00:39:35;33.30;;;30.20;;
2175;SDS011;1094;49.902;10.876;2023-06-22T00:42:01;34.03;;;30.70;;
2175;SDS011;1094;49.902;10.876;2023-06-22T00:44:27;34.20;;;30.90;;
2175;SDS011;1094;49.902;10.876;2023-06-22T00:46:53;34.17;;;30.97;;
2175;SDS011;1094;49.902;10.876;2023-06-22T00:49:19;36.43;;;32.93;;
2175;SDS011;1094;49.902;10.876;2023-06-22T00:51:45;34.80;;;31.30;;
2175;SDS011;1094;49.902;10.876;2023-06-22T00:54:12;34.97;;;31.03;;
2175;SDS011;1094;49.902;10.876;2023-06-22T00:56:39;35.27;;;31.50;;
2175;SDS011;1094;49.902;10.876;2023-06-22T00:59:06;32.53;;;29.40;;
2175;SDS011;1094;49.902;10.876;2023-06-22T01:01:32;37.00;;;33.07;;
2175;SDS011;1094;49.902;10.876;2023-06-22T01:03:59;34.77;;;31.10;;
2175;SDS011;1094;49.902;10.876;2023-06-22T01:06:29;36.13;;;32.57;;
2175;SDS011;1094;49.902;10.876;2023-06-22T01:09:13;34.37;;;31.17;;
2175;SDS011;1094;49.902;10.876;2023-06-22T01:11:48;33.30;;;30.17;;
2175;SDS011;1094;49.902;10.876;2023-06-22T01:17:02;34.63;;;31.43;;
2175;SDS011;1094;49.902;10.876;2023-06-22T01:22:06;33.73;;;30.43;;
2175;SDS011;1094;49.902;10.876;2023-06-22T01:30:14;40.13;;;31.20;;
2175;SDS011;1094;49.902;10.876;2023-06-22T01:32:41;31.97;;;28.67;;
2175;SDS011;1094;49.902;10.876;2023-06-22T01:35:08;33.90;;;30.40;;
2175;SDS011;1094;49.902;10.876;2023-06-22T01:37:35;32.07;;;28.67;;
2175;SDS011;1094;49.902;10.876;2023-06-22T01:40:02;33.07;;;29.80;;
2175;SDS011;1094;49.902;10.876;2023-06-22T01:42:30;31.07;;;27.80;;
2175;SDS011;1094;49.902;10.876;2023-06-22T01:44:56;32.87;;;29.73;;
2175;SDS011;1094;49.902;10.876;2023-06-22T01:47:22;33.97;;;30.60;;
2175;SDS011;1094;49.902;10.876;2023-06-22T01:49:49;33.17;;;29.67;;
2175;SDS011;1094;49.902;10.876;2023-06-22T01:52:18;33.63;;;30.23;;
2175;SDS011;1094;49.902;10.876;2023-06-22T01:54:46;35.10;;;30.50;;
2175;SDS011;1094;49.902;10.876;2023-06-22T01:57:12;32.73;;;29.43;;
2175;SDS011;1094;49.902;10.876;2023-06-22T01:59:48;31.37;;;28.37;;
2175;SDS011;1094;49.902;10.876;2023-06-22T02:02:16;34.00;;;30.73;;
2175;SDS011;1094;49.902;10.876;2023-06-22T02:04:48;32.60;;;29.33;;
2175;SDS011;1094;49.902;10.876;2023-06-22T02:07:17;32.97;;;29.47;;
2175;SDS011;1094;49.902;10.876;2023-06-22T02:09:46;32.67;;;29.63;;
2175;SDS011;1094;49.902;10.876;2023-06-22T02:12:13;33.13;;;28.07;;
2175;SDS011;1094;49.902;10.876;2023-06-22T02:14:41;33.80;;;30.30;;
2175;SDS011;1094;49.902;10.876;2023-06-22T02:17:08;32.00;;;28.87;;
2175;SDS011;1094;49.902;10.876;2023-06-22T02:19:38;34.80;;;29.97;;
2175;SDS011;1094;49.902;10.876;2023-06-22T02:22:04;30.60;;;27.60;;
2175;SDS011;1094;49.902;10.876;2023-06-22T02:24:30;30.80;;;27.70;;
2175;SDS011;1094;49.902;10.876;2023-06-22T02:27:00;35.33;;;31.60;;
2175;SDS011;1094;49.902;10.876;2023-06-22T02:29:26;36.90;;;29.67;;
2175;SDS011;1094;49.902;10.876;2023-06-22T02:31:52;34.10;;;30.60;;
2175;SDS011;1094;49.902;10.876;2023-06-22T02:34:18;34.80;;;31.20;;
2175;SDS011;1094;49.902;10.876;2023-06-22T02:36:48;33.60;;;30.00;;
2175;SDS011;1094;49.902;10.876;2023-06-22T02:39:18;32.33;;;29.30;;
2175;SDS011;1094;49.902;10.876;2023-06-22T02:41:44;33.00;;;29.60;;
2175;SDS011;1094;49.902;10.876;2023-06-22T02:44:10;31.80;;;28.53;;
2175;SDS011;1094;49.902;10.876;2023-06-22T02:46:36;34.17;;;29.07;;
2175;SDS011;1094;49.902;10.876;2023-06-22T02:49:02;33.77;;;30.20;;
2175;SDS011;1094;49.902;10.876;2023-06-22T02:51:28;32.90;;;29.50;;
2175;SDS011;1094;49.902;10.876;2023-06-22T02:53:55;35.30;;;31.63;;
2175;SDS011;1094;49.902;10.876;2023-06-22T02:56:22;33.50;;;29.90;;
2175;SDS011;1094;49.902;10.876;2023-06-22T02:58:50;31.37;;;28.00;;
2175;SDS011;1094;49.902;10.876;2023-06-22T03:01:16;31.60;;;28.60;;
2175;SDS011;1094;49.902;10.876;2023-06-22T03:03:49;32.33;;;28.93;;
2175;SDS011;1094;49.902;10.876;2023-06-22T03:06:15;31.97;;;28.27;;
2175;SDS011;1094;49.902;10.876;2023-06-22T03:08:41;32.30;;;28.97;;
2175;SDS011;1094;49.902;10.876;2023-06-22T03:11:07;33.70;;;30.33;;
2175;SDS011;1094;49.902;10.876;2023-06-22T03:13:33;34.33;;;30.73;;
2175;SDS011;1094;49.902;10.876;2023-06-22T03:15:59;33.50;;;30.00;;
2175;SDS011;1094;49.902;10.876;2023-06-22T03:18:25;33.90;;;30.00;;
2175;SDS011;1094;49.902;10.876;2023-06-22T03:20:51;31.87;;;28.87;;
2175;SDS011;1094;49.902;10.876;2023-06-22T03:23:17;32.80;;;29.80;;
2175;SDS011;1094;49.902;10.876;2023-06-22T03:25:43;33.07;;;29.97;;
2175;SDS011;1094;49.902;10.876;2023-06-22T03:28:09;33.33;;;29.97;;
2175;SDS011;1094;49.902;10.876;2023-06-22T03:30:35;31.87;;;28.70;;
2175;SDS011;1094;49.902;10.876;2023-06-22T03:33:01;34.07;;;30.73;;
2175;SDS011;1094;49.902;10.876;2023-06-22T03:35:27;35.53;;;31.20;;
2175;SDS011;1094;49.902;10.876;2023-06-22T03:37:53;34.80;;;31.13;;
2175;SDS011;1094;49.902;10.876;2023-06-22T03:40:19;36.40;;;32.20;;
2175;SDS011;1094;49.902;10.876;2023-06-22T03:42:45;37.43;;;31.10;;
2175;SDS011;1094;49.902;10.876;2023-06-22T03:45:11;33.97;;;30.37;;
2175;SDS011;1094;49.902;10.876;2023-06-22T03:47:37;31.47;;;28.47;;
2175;SDS011;1094;49.902;10.876;2023-06-22T03:50:04;32.30;;;28.43;;
2175;SDS011;1094;49.902;10.876;2023-06-22T03:52:31;32.17;;;29.00;;
2175;SDS011;1094;49.902;10.876;2023-06-22T03:54:57;31.83;;;28.13;;
2175;SDS011;1094;49.902;10.876;2023-06-22T03:57:23;31.50;;;28.50;;
2175;SDS011;1094;49.902;10.876;2023-06-22T03:59:49;31.97;;;28.87;;
2175;SDS011;1094;49.902;10.876;2023-06-22T04:02:15;32.20;;;29.13;;
2175;SDS011;1094;49.902;10.876;2023-06-22T04:04:41;33.30;;;29.97;;
2175;SDS011;1094;49.902;10.876;2023-06-22T04:07:07;33.03;;;29.87;;
2175;SDS011;1094;49.902;10.876;2023-06-22T04:09:33;32.33;;;29.23;;
2175;SDS011;1094;49.902;10.876;2023-06-22T04:11:59;33.80;;;30.63;;
2175;SDS011;1094;49.902;10.876;2023-06-22T04:14:25;33.33;;;30.40;;
2175;SDS011;1094;49.902;10.876;2023-06-22T04:16:51;35.40;;;32.13;;
2175;SDS011;1094;49.902;10.876;2023-06-22T04:19:17;33.77;;;30.07;;
2175;SDS011;1094;49.902;10.876;2023-06-22T04:21:43;32.77;;;29.90;;
2175;SDS011;1094;49.902;10.876;2023-06-22T04:24:10;33.47;;;30.57;;
2175;SDS011;1094;49.902;10.876;2023-06-22T04:26:36;33.80;;;31.10;;
2175;SDS011;1094;49.902;10.876;2023-06-22T04:29:03;35.00;;;31.80;;
2175;SDS011;1094;49.902;10.876;2023-06-22T04:31:30;33.23;;;30.40;;
2175;SDS011;1094;49.902;10.876;2023-06-22T04:33:57;34.00;;;31.20;;
2175;SDS011;1094;49.902;10.876;2023-06-22T04:36:30;33.87;;;31.27;;
2175;SDS011;1094;49.902;10.876;2023-06-22T04:39:01;34.10;;;31.40;;
2175;SDS011;1094;49.902;10.876;2023-06-22T04:41:28;36.33;;;33.43;;
2175;SDS011;1094;49.902;10.876;2023-06-22T04:43:53;32.83;;;30.43;;
2175;SDS011;1094;49.902;10.876;2023-06-22T04:46:24;32.20;;;29.70;;
2175;SDS011;1094;49.902;10.876;2023-06-22T04:48:50;33.10;;;30.37;;
2175;SDS011;1094;49.902;10.876;2023-06-22T04:51:16;32.43;;;30.00;;
2175;SDS011;1094;49.902;10.876;2023-06-22T04:53:46;33.40;;;30.43;;
2175;SDS011;1094;49.902;10.876;2023-06-22T04:56:12;30.90;;;28.60;;
2175;SDS011;1094;49.902;10.876;2023-06-22T04:58:40;32.77;;;30.40;;
2175;SDS011;1094;49.902;10.876;2023-06-22T05:01:06;33.60;;;31.03;;
2175;SDS011;1094;49.902;10.876;2023-06-22T05:03:33;33.80;;;31.10;;
2175;SDS011;1094;49.902;10.876;2023-06-22T05:06:01;32.57;;;30.27;;
2175;SDS011;1094;49.902;10.876;2023-06-22T05:08:27;32.00;;;29.80;;
2175;SDS011;1094;49.902;10.876;2023-06-22T05:10:53;29.90;;;27.90;;
2175;SDS011;1094;49.902;10.876;2023-06-22T05:13:19;31.73;;;29.53;;
2175;SDS011;1094;49.902;10.876;2023-06-22T05:15:46;31.37;;;28.93;;
2175;SDS011;1094;49.902;10.876;2023-06-22T05:18:12;31.70;;;28.80;;
2175;SDS011;1094;49.902;10.876;2023-06-22T05:20:38;30.90;;;28.43;;
2175;SDS011;1094;49.902;10.876;2023-06-22T05:23:04;29.63;;;27.43;;
2175;SDS011;1094;49.902;10.876;2023-06-22T05:25:30;29.30;;;27.40;;
2175;SDS011;1094;49.902;10.876;2023-06-22T05:27:57;29.67;;;27.67;;
2175;SDS011;1094;49.902;10.876;2023-06-22T05:30:23;27.83;;;26.03;;
2175;SDS011;1094;49.902;10.876;2023-06-22T05:32:49;27.90;;;26.10;;
2175;SDS011;1094;49.902;10.876;2023-06-22T05:35:17;28.23;;;26.23;;
2175;SDS011;1094;49.902;10.876;2023-06-22T05:37:43;28.30;;;26.30;;
2175;SDS011;1094;49.902;10.876;2023-06-22T05:40:09;31.10;;;28.80;;
2175;SDS011;1094;49.902;10.876;2023-06-22T05:42:35;28.67;;;26.53;;
2175;SDS011;1094;49.902;10.876;2023-06-22T05:45:01;30.03;;;27.67;;
2175;SDS011;1094;49.902;10.876;2023-06-22T05:47:27;29.47;;;27.17;;
2175;SDS011;1094;49.902;10.876;2023-06-22T05:49:53;30.10;;;27.50;;
2175;SDS011;1094;49.902;10.876;2023-06-22T05:52:19;28.40;;;26.30;;
2175;SDS011;1094;49.902;10.876;2023-06-22T05:54:45;29.93;;;26.87;;
2175;SDS011;1094;49.902;10.876;2023-06-22T05:57:11;28.90;;;26.60;;
2175;SDS011;1094;49.902;10.876;2023-06-22T05:59:37;29.17;;;26.90;;
2175;SDS011;1094;49.902;10.876;2023-06-22T06:02:03;28.40;;;26.40;;
2175;SDS011;1094;49.902;10.876;2023-06-22T06:04:29;27.20;;;25.17;;
2175;SDS011;1094;49.902;10.876;2023-06-22T06:06:55;26.63;;;24.63;;
2175;SDS011;1094;49.902;10.876;2023-06-22T06:09:22;25.90;;;24.20;;
2175;SDS011;1094;49.902;10.876;2023-06-22T06:11:48;26.00;;;24.30;;
2175;SDS011;1094;49.902;10.876;2023-06-22T06:14:14;26.53;;;24.57;;
2175;SDS011;1094;49.902;10.876;2023-06-22T06:16:42;26.37;;;24.63;;
2175;SDS011;1094;49.902;10.876;2023-06-22T06:19:07;25.73;;;23.93;;
2175;SDS011;1094;49.902;10.876;2023-06-22T06:21:33;25.13;;;23.43;;
2175;SDS011;1094;49.902;10.876;2023-06-22T06:23:59;24.13;;;22.73;;
2175;SDS011;1094;49.902;10.876;2023-06-22T06:26:25;25.70;;;23.90;;
2175;SDS011;1094;49.902;10.876;2023-06-22T06:28:55;24.73;;;23.03;;
2175;SDS011;1094;49.902;10.876;2023-06-22T06:31:21;23.87;;;22.23;;
2175;SDS011;1094;49.902;10.876;2023-06-22T06:33:48;24.60;;;22.87;;
2175;SDS011;1094;49.902;10.876;2023-06-22T06:36:14;24.48;;;22.50;;
2175;SDS011;1094;49.902;10.876;2023-06-22T06:38:40;24.85;;;22.88;;
2175;SDS011;1094;49.902;10.876;2023-06-22T06:41:06;23.50;;;22.00;;
2175;SDS011;1094;49.902;10.876;2023-06-22T06:43:32;23.55;;;22.15;;
2175;SDS011;1094;49.902;10.876;2023-06-22T06:45:58;23.67;;;22.17;;
2175;SDS011;1094;49.902;10.876;2023-06-22T06:48:24;22.50;;;21.02;;
2175;SDS011;1094;49.902;10.876;2023-06-22T06:50:50;23.35;;;21.95;;
2175;SDS011;1094;49.902;10.876;2023-06-22T06:53:16;23.65;;;22.17;;
2175;SDS011;1094;49.902;10.876;2023-06-22T06:55:41;22.27;;;20.97;;
2175;SDS011;1094;49.902;10.876;2023-06-22T06:58:08;22.57;;;21.20;;
2175;SDS011;1094;49.902;10.876;2023-06-22T07:00:36;22.73;;;21.23;;
2175;SDS011;1094;49.902;10.876;2023-06-22T07:03:02;22.63;;;21.23;;
2175;SDS011;1094;49.902;10.876;2023-06-22T07:05:28;23.37;;;21.97;;
2175;SDS011;1094;49.902;10.876;2023-06-22T07:07:54;22.77;;;21.47;;
2175;SDS011;1094;49.902;10.876;2023-06-22T07:10:20;22.90;;;21.50;;
2175;SDS011;1094;49.902;10.876;2023-06-22T07:12:46;22.50;;;21.20;;
2175;SDS011;1094;49.902;10.876;2023-06-22T07:15:13;22.83;;;21.43;;
2175;SDS011;1094;49.902;10.876;2023-06-22T07:17:39;23.23;;;21.60;;
2175;SDS011;1094;49.902;10.876;2023-06-22T07:20:06;22.07;;;20.67;;
2175;SDS011;1094;49.902;10.876;2023-06-22T07:22:37;22.60;;;21.30;;
2175;SDS011;1094;49.902;10.876;2023-06-22T07:25:03;22.07;;;20.77;;
2175;SDS011;1094;49.902;10.876;2023-06-22T07:27:34;21.10;;;19.90;;
2175;SDS011;1094;49.902;10.876;2023-06-22T07:30:01;21.60;;;20.40;;
2175;SDS011;1094;49.902;10.876;2023-06-22T07:32:27;22.20;;;20.80;;
2175;SDS011;1094;49.902;10.876;2023-06-22T07:34:53;21.63;;;20.43;;
2175;SDS011;1094;49.902;10.876;2023-06-22T07:37:19;21.37;;;20.10;;
2175;SDS011;1094;49.902;10.876;2023-06-22T07:39:45;21.50;;;20.20;;
2175;SDS011;1094;49.902;10.876;2023-06-22T07:42:11;21.50;;;20.30;;
2175;SDS011;1094;49.902;10.876;2023-06-22T07:44:37;21.80;;;20.50;;
2175;SDS011;1094;49.902;10.876;2023-06-22T07:47:03;21.60;;;20.20;;
2175;SDS011;1094;49.902;10.876;2023-06-22T07:49:29;23.93;;;22.53;;
2175;SDS011;1094;49.902;10.876;2023-06-22T07:51:55;21.27;;;20.03;;
2175;SDS011;1094;49.902;10.876;2023-06-22T07:54:21;20.77;;;19.67;;
2175;SDS011;1094;49.902;10.876;2023-06-22T07:56:47;20.93;;;19.73;;
2175;SDS011;1094;49.902;10.876;2023-06-22T07:59:13;20.23;;;19.13;;
2175;SDS011;1094;49.902;10.876;2023-06-22T08:01:39;20.50;;;19.40;;
2175;SDS011;1094;49.902;10.876;2023-06-22T08:04:05;19.73;;;18.63;;
2175;SDS011;1094;49.902;10.876;2023-06-22T08:06:31;19.92;;;18.80;;
2175;SDS011;1094;49.902;10.876;2023-06-22T08:08:57;19.88;;;18.77;;
2175;SDS011;1094;49.902;10.876;2023-06-22T08:11:24;20.55;;;19.33;;
2175;SDS011;1094;49.902;10.876;2023-06-22T08:13:50;20.53;;;19.20;;
2175;SDS011;1094;49.902;10.876;2023-06-22T08:16:16;19.37;;;18.27;;
2175;SDS011;1094;49.902;10.876;2023-06-22T08:18:42;20.07;;;18.77;;
2175;SDS011;1094;49.902;10.876;2023-06-22T08:21:08;18.45;;;17.55;;
2175;SDS011;1094;49.902;10.876;2023-06-22T08:23:36;20.48;;;18.98;;
2175;SDS011;1094;49.902;10.876;2023-06-22T08:26:02;19.77;;;18.67;;
2175;SDS011;1094;49.902;10.876;2023-06-22T08:28:28;19.08;;;17.98;;
2175;SDS011;1094;49.902;10.876;2023-06-22T08:30:54;20.00;;;18.90;;
2175;SDS011;1094;49.902;10.876;2023-06-22T08:33:20;20.33;;;19.23;;
2175;SDS011;1094;49.902;10.876;2023-06-22T08:35:49;19.70;;;18.50;;
2175;SDS011;1094;49.902;10.876;2023-06-22T08:38:15;20.00;;;18.90;;
2175;SDS011;1094;49.902;10.876;2023-06-22T08:40:43;18.92;;;17.90;;
2175;SDS011;1094;49.902;10.876;2023-06-22T08:43:09;18.90;;;17.80;;
2175;SDS011;1094;49.902;10.876;2023-06-22T08:45:35;19.10;;;18.10;;
2175;SDS011;1094;49.902;10.876;2023-06-22T08:48:01;19.48;;;18.38;;
2175;SDS011;1094;49.902;10.876;2023-06-22T08:50:27;18.40;;;17.40;;
2175;SDS011;1094;49.902;10.876;2023-06-22T08:52:53;18.80;;;17.65;;
2175;SDS011;1094;49.902;10.876;2023-06-22T08:55:19;19.10;;;17.65;;
2175;SDS011;1094;49.902;10.876;2023-06-22T08:57:45;19.15;;;17.67;;
2175;SDS011;1094;49.902;10.876;2023-06-22T09:00:11;19.10;;;18.00;;
2175;SDS011;1094;49.902;10.876;2023-06-22T09:02:42;18.92;;;17.92;;
2175;SDS011;1094;49.902;10.876;2023-06-22T09:05:08;18.42;;;17.38;;
2175;SDS011;1094;49.902;10.876;2023-06-22T09:07:34;18.67;;;17.70;;
2175;SDS011;1094;49.902;10.876;2023-06-22T09:10:00;18.88;;;17.58;;
2175;SDS011;1094;49.902;10.876;2023-06-22T09:12:26;18.67;;;17.67;;
2175;SDS011;1094;49.902;10.876;2023-06-22T09:14:55;18.45;;;17.35;;
2175;SDS011;1094;49.902;10.876;2023-06-22T09:17:21;19.10;;;17.52;;
2175;SDS011;1094;49.902;10.876;2023-06-22T09:19:47;19.77;;;18.58;;
2175;SDS011;1094;49.902;10.876;2023-06-22T09:22:13;19.13;;;17.88;;
2175;SDS011;1094;49.902;10.876;2023-06-22T09:24:39;18.45;;;17.25;;
2175;SDS011;1094;49.902;10.876;2023-06-22T09:27:05;18.20;;;17.10;;
2175;SDS011;1094;49.902;10.876;2023-06-22T09:29:31;17.83;;;16.83;;
2175;SDS011;1094;49.902;10.876;2023-06-22T09:31:58;18.10;;;17.10;;
2175;SDS011;1094;49.902;10.876;2023-06-22T09:34:24;17.63;;;16.73;;
2175;SDS011;1094;49.902;10.876;2023-06-22T09:36:50;19.48;;;17.77;;
2175;SDS011;1094;49.902;10.876;2023-06-22T09:39:17;18.30;;;17.20;;
2175;SDS011;1094;49.902;10.876;2023-06-22T09:41:43;18.92;;;17.60;;
2175;SDS011;1094;49.902;10.876;2023-06-22T09:44:09;18.23;;;17.23;;
2175;SDS011;1094;49.902;10.876;2023-06-22T09:46:35;18.42;;;17.35;;
2175;SDS011;1094;49.902;10.876;2023-06-22T09:49:01;18.77;;;17.58;;
2175;SDS011;1094;49.902;10.876;2023-06-22T09:51:27;18.70;;;17.60;;
2175;SDS011;1094;49.902;10.876;2023-06-22T09:53:53;19.08;;;17.77;;
2175;SDS011;1094;49.902;10.876;2023-06-22T09:56:19;18.23;;;17.33;;
2175;SDS011;1094;49.902;10.876;2023-06-22T09:58:46;18.23;;;17.13;;
2175;SDS011;1094;49.902;10.876;2023-06-22T10:01:12;17.95;;;16.95;;
2175;SDS011;1094;49.902;10.876;2023-06-22T10:03:41;17.88;;;16.77;;
2175;SDS011;1094;49.902;10.876;2023-06-22T10:06:07;18.20;;;17.10;;
2175;SDS011;1094;49.902;10.876;2023-06-22T10:08:37;18.40;;;17.30;;
2175;SDS011;1094;49.902;10.876;2023-06-22T10:11:04;17.88;;;16.95;;
2175;SDS011;1094;49.902;10.876;2023-06-22T10:13:30;18.20;;;17.15;;
2175;SDS011;1094;49.902;10.876;2023-06-22T10:15:56;18.27;;;17.23;;
2175;SDS011;1094;49.902;10.876;2023-06-22T10:18:22;18.10;;;17.10;;
2175;SDS011;1094;49.902;10.876;2023-06-22T10:20:49;18.80;;;17.75;;
2175;SDS011;1094;49.902;10.876;2023-06-22T10:23:18;18.05;;;16.98;;
2175;SDS011;1094;49.902;10.876;2023-06-22T10:25:44;18.80;;;17.60;;
2175;SDS011;1094;49.902;10.876;2023-06-22T10:28:10;18.52;;;17.52;;
2175;SDS011;1094;49.902;10.876;2023-06-22T10:30:37;18.00;;;17.00;;
2175;SDS011;1094;49.902;10.876;2023-06-22T10:33:03;18.35;;;17.10;;
2175;SDS011;1094;49.902;10.876;2023-06-22T10:35:29;17.40;;;16.50;;
2175;SDS011;1094;49.902;10.876;2023-06-22T10:37:55;17.48;;;16.48;;
2175;SDS011;1094;49.902;10.876;2023-06-22T10:40:21;17.02;;;16.05;;
2175;SDS011;1094;49.902;10.876;2023-06-22T10:42:47;16.92;;;15.98;;
2175;SDS011;1094;49.902;10.876;2023-06-22T10:45:15;17.00;;;16.20;;
2175;SDS011;1094;49.902;10.876;2023-06-22T10:47:41;17.83;;;16.92;;
2175;SDS011;1094;49.902;10.876;2023-06-22T10:50:07;17.88;;;16.73;;
2175;SDS011;1094;49.902;10.876;2023-06-22T10:52:33;18.02;;;17.08;;
2175;SDS011;1094;49.902;10.876;2023-06-22T10:54:59;17.35;;;16.30;;
2175;SDS011;1094;49.902;10.876;2023-06-22T10:57:25;17.98;;;16.70;;
2175;SDS011;1094;49.902;10.876;2023-06-22T10:59:51;18.13;;;16.67;;
2175;SDS011;1094;49.902;10.876;2023-06-22T11:02:17;17.40;;;16.50;;
2175;SDS011;1094;49.902;10.876;2023-06-22T11:04:43;18.13;;;16.92;;
2175;SDS011;1094;49.902;10.876;2023-06-22T11:07:09;17.20;;;16.35;;
2175;SDS011;1094;49.902;10.876;2023-06-22T11:09:35;18.50;;;17.30;;
2175;SDS011;1094;49.902;10.876;2023-06-22T11:12:01;17.50;;;16.42;;
2175;SDS011;1094;49.902;10.876;2023-06-22T11:14:27;17.67;;;16.67;;
2175;SDS011;1094;49.902;10.876;2023-06-22T11:16:53;18.25;;;17.25;;
2175;SDS011;1094;49.902;10.876;2023-06-22T11:19:19;18.60;;;17.50;;
2175;SDS011;1094;49.902;10.876;2023-06-22T11:21:45;18.40;;;16.90;;
2175;SDS011;1094;49.902;10.876;2023-06-22T11:24:11;17.98;;;16.88;;
2175;SDS011;1094;49.902;10.876;2023-06-22T11:26:36;18.95;;;17.63;;
2175;SDS011;1094;49.902;10.876;2023-06-22T11:29:02;17.65;;;16.50;;
2175;SDS011;1094;49.902;10.876;2023-06-22T11:31:33;17.55;;;16.45;;
2175;SDS011;1094;49.902;10.876;2023-06-22T11:33:59;18.35;;;17.33;;
2175;SDS011;1094;49.902;10.876;2023-06-22T11:36:25;25.40;;;23.58;;
2175;SDS011;1094;49.902;10.876;2023-06-22T11:38:52;18.30;;;17.20;;
2175;SDS011;1094;49.902;10.876;2023-06-22T11:41:17;19.50;;;18.10;;
2175;SDS011;1094;49.902;10.876;2023-06-22T11:43:44;19.02;;;17.80;;
2175;SDS011;1094;49.902;10.876;2023-06-22T11:46:10;19.67;;;18.47;;
2175;SDS011;1094;49.902;10.876;2023-06-22T11:48:36;19.37;;;18.07;;
2175;SDS011;1094;49.902;10.876;2023-06-22T11:51:02;20.03;;;18.57;;
2175;SDS011;1094;49.902;10.876;2023-06-22T11:53:29;20.03;;;18.83;;
2175;SDS011;1094;49.902;10.876;2023-06-22T11:55:55;19.87;;;18.47;;
2175;SDS011;1094;49.902;10.876;2023-06-22T11:58:21;20.10;;;18.73;;
2175;SDS011;1094;49.902;10.876;2023-06-22T12:00:47;19.20;;;17.80;;
2175;SDS011;1094;49.902;10.876;2023-06-22T12:03:13;20.43;;;19.13;;
2175;SDS011;1094;49.902;10.876;2023-06-22T12:05:39;19.93;;;18.63;;
2175;SDS011;1094;49.902;10.876;2023-06-22T12:08:05;19.57;;;18.10;;
2175;SDS011;1094;49.902;10.876;2023-06-22T12:10:31;19.97;;;18.57;;
2175;SDS011;1094;49.902;10.876;2023-06-22T12:12:57;20.07;;;18.50;;
2175;SDS011;1094;49.902;10.876;2023-06-22T12:15:24;18.87;;;17.57;;
2175;SDS011;1094;49.902;10.876;2023-06-22T12:17:51;20.20;;;18.80;;
2175;SDS011;1094;49.902;10.876;2023-06-22T12:20:17;20.03;;;18.63;;
2175;SDS011;1094;49.902;10.876;2023-06-22T12:22:43;19.83;;;18.33;;
2175;SDS011;1094;49.902;10.876;2023-06-22T12:25:09;20.33;;;18.77;;
2175;SDS011;1094;49.902;10.876;2023-06-22T12:27:35;19.77;;;18.37;;
2175;SDS011;1094;49.902;10.876;2023-06-22T12:30:02;20.67;;;19.07;;
2175;SDS011;1094;49.902;10.876;2023-06-22T12:32:28;20.47;;;18.93;;
2175;SDS011;1094;49.902;10.876;2023-06-22T12:34:54;20.10;;;18.80;;
2175;SDS011;1094;49.902;10.876;2023-06-22T12:37:20;20.90;;;19.03;;
2175;SDS011;1094;49.902;10.876;2023-06-22T12:39:46;20.03;;;18.53;;
2175;SDS011;1094;49.902;10.876;2023-06-22T12:42:12;20.20;;;18.70;;
2175;SDS011;1094;49.902;10.876;2023-06-22T12:44:38;19.80;;;18.50;;
2175;SDS011;1094;49.902;10.876;2023-06-22T12:47:05;20.23;;;18.33;;
2175;SDS011;1094;49.902;10.876;2023-06-22T12:49:31;20.77;;;19.13;;
2175;SDS011;1094;49.902;10.876;2023-06-22T12:51:57;20.40;;;19.00;;
2175;SDS011;1094;49.902;10.876;2023-06-22T12:54:23;20.37;;;18.97;;
2175;SDS011;1094;49.902;10.876;2023-06-22T12:56:49;19.70;;;18.47;;
2175;SDS011;1094;49.902;10.876;2023-06-22T12:59:15;21.07;;;19.43;;
2175;SDS011;1094;49.902;10.876;2023-06-22T13:01:44;22.07;;;20.37;;
2175;SDS011;1094;49.902;10.876;2023-06-22T13:04:13;21.47;;;19.97;;
2175;SDS011;1094;49.902;10.876;2023-06-22T13:06:43;20.73;;;19.37;;
2175;SDS011;1094;49.902;10.876;2023-06-22T13:09:12;22.00;;;20.40;;
2175;SDS011;1094;49.902;10.876;2023-06-22T13:11:38;21.40;;;19.97;;
2175;SDS011;1094;49.902;10.876;2023-06-22T13:14:04;22.20;;;20.50;;
2175;SDS011;1094;49.902;10.876;2023-06-22T13:16:30;21.87;;;20.17;;
2175;SDS011;1094;49.902;10.876;2023-06-22T13:18:56;21.30;;;19.73;;
2175;SDS011;1094;49.902;10.876;2023-06-22T13:21:22;21.83;;;20.10;;
2175;SDS011;1094;49.902;10.876;2023-06-22T13:23:48;22.00;;;20.30;;
2175;SDS011;1094;49.902;10.876;2023-06-22T13:26:14;21.23;;;19.77;;
2175;SDS011;1094;49.902;10.876;2023-06-22T13:28:39;21.60;;;20.30;;
2175;SDS011;1094;49.902;10.876;2023-06-22T13:31:05;21.13;;;19.73;;
2175;SDS011;1094;49.902;10.876;2023-06-22T13:33:31;21.53;;;20.00;;
2175;SDS011;1094;49.902;10.876;2023-06-22T13:35:57;21.00;;;19.33;;
2175;SDS011;1094;49.902;10.876;2023-06-22T13:38:23;21.07;;;19.47;;
2175;SDS011;1094;49.902;10.876;2023-06-22T13:40:49;21.20;;;19.57;;
2175;SDS011;1094;49.902;10.876;2023-06-22T13:43:16;21.20;;;19.03;;
2175;SDS011;1094;49.902;10.876;2023-06-22T13:45:42;19.77;;;18.37;;
2175;SDS011;1094;49.902;10.876;2023-06-22T13:48:08;21.33;;;19.67;;
2175;SDS011;1094;49.902;10.876;2023-06-22T13:50:34;21.97;;;19.60;;
2175;SDS011;1094;49.902;10.876;2023-06-22T13:53:00;21.97;;;20.10;;
2175;SDS011;1094;49.902;10.876;2023-06-22T13:55:26;22.23;;;20.30;;
2175;SDS011;1094;49.902;10.876;2023-06-22T13:57:52;22.27;;;20.33;;
2175;SDS011;1094;49.902;10.876;2023-06-22T14:00:18;22.90;;;20.90;;
2175;SDS011;1094;49.902;10.876;2023-06-22T14:02:44;21.30;;;19.77;;
2175;SDS011;1094;49.902;10.876;2023-06-22T14:05:10;22.20;;;20.20;;
2175;SDS011;1094;49.902;10.876;2023-06-22T14:07:37;21.93;;;20.07;;
2175;SDS011;1094;49.902;10.876;2023-06-22T14:10:03;21.30;;;19.37;;
2175;SDS011;1094;49.902;10.876;2023-06-22T14:12:29;22.10;;;19.77;;
2175;SDS011;1094;49.902;10.876;2023-06-22T14:14:55;33.57;;;20.50;;
2175;SDS011;1094;49.902;10.876;2023-06-22T14:17:22;20.83;;;19.33;;
2175;SDS011;1094;49.902;10.876;2023-06-22T14:19:50;21.47;;;19.87;;
2175;SDS011;1094;49.902;10.876;2023-06-22T14:22:17;22.17;;;20.27;;
2175;SDS011;1094;49.902;10.876;2023-06-22T14:24:43;20.97;;;19.67;;
2175;SDS011;1094;49.902;10.876;2023-06-22T14:27:09;21.40;;;19.83;;
2175;SDS011;1094;49.902;10.876;2023-06-22T14:29:35;20.70;;;19.13;;
2175;SDS011;1094;49.902;10.876;2023-06-22T14:32:01;20.47;;;18.87;;
2175;SDS011;1094;49.902;10.876;2023-06-22T14:34:27;21.17;;;19.60;;
2175;SDS011;1094;49.902;10.876;2023-06-22T14:36:53;21.53;;;19.77;;
2175;SDS011;1094;49.902;10.876;2023-06-22T14:39:19;21.53;;;19.70;;